Time;durP1;ratioP1;P1;durP2;ratioP2;P2;SDS_P1;SDS_P2;PMS_P1;PMS_P2;Temp;Humidity;BMP_temperature;BMP_pressure;BME280_temperature;BME280_humidity;BME280_pressure;Samples;Min_cycle;Max_cycle;Signal;HPM_P1;HPM_P2
2023/08/15 00:01:27;;;;;;;;;;;;;;;-145.06;100.00;60892.56;4712749;29;19916;-93
2023/08/15 00:04:09;;;;;;;;;;;;;;;-145.06;100.00;60892.56;4712996;29;19920;-92
2023/08/15 00:06:48;;;;;;;;;;;;;;;-145.06;100.00;60892.56;4713118;29;19920;-92
2023/08/15 00:09:29;;;;;;;;;;;;;;;-145.06;100.00;60892.56;4725689;29;19924;-93
2023/08/15 00:12:16;;;;;;;;;;;;;;;-145.06;100.00;60892.56;4695113;29;20449;-92
2023/08/15 00:15:05;;;;;;;;;;;;;;;-145.06;100.00;60892.56;4699861;29;19916;-92
2023/08/15 00:17:47;;;;;;;;;;;;;;;-145.06;100.00;60892.56;4700071;29;19916;-92
2023/08/15 00:20:26;;;;;;;;;;;;;;;-145.06;100.00;60892.56;4713038;29;19916;-92
2023/08/15 00:23:05;;;;;;;;;;;;;;;-145.06;100.00;60892.56;4712996;29;19916;-92
2023/08/15 00:25:46;;;;;;;;;;;;;;;-145.06;100.00;60892.56;4712819;29;19920;-92
2023/08/15 00:28:30;;;;;;;;;;;;;;;-145.06;100.00;60892.56;4712402;29;19951;-93
2023/08/15 00:31:12;;;;;;;;;;;;;;;-145.06;100.00;60892.56;4714489;29;19954;-92
2023/08/15 00:33:53;;;;;;;;;;;;;;;-145.06;100.00;60892.56;4708612;29;19916;-92
2023/08/15 00:36:40;;;;;;;;;;;;;;;-145.06;100.00;60892.56;4715290;29;19916;-93
2023/08/15 00:39:19;;;;;;;;;;;;;;;-145.06;100.00;60892.56;4721409;29;20282;-90
2023/08/15 00:41:58;;;;;;;;;;;;;;;-145.06;100.00;60892.56;4712407;29;19920;-93
2023/08/15 00:44:42;;;;;;;;;;;;;;;-145.06;100.00;60892.56;4702058;29;20287;-92
2023/08/15 00:47:32;;;;;;;;;;;;;;;-145.06;100.00;60892.56;4711018;29;19916;-92
2023/08/15 00:50:11;;;;;;;;;;;;;;;-145.06;100.00;60892.56;4698711;29;19916;-92
2023/08/15 00:52:50;;;;;;;;;;;;;;;-145.06;100.00;60892.56;4715111;29;19916;-92
2023/08/15 00:55:32;;;;;;;;;;;;;;;-145.06;100.00;60892.56;4714973;29;20374;-93
2023/08/15 00:58:21;;;;;;;;;;;;;;;-145.06;100.00;60892.56;4719120;29;19916;-92
2023/08/15 01:01:06;;;;;;;;;;;;;;;-145.06;100.00;60892.56;4719402;29;19916;-93
2023/08/15 01:04:05;;;;;;;;;;;;;;;-145.06;100.00;60892.56;4718209;29;19916;-92
2023/08/15 01:07:23;;;;;;;;;;;;;;;;;;;;;
2023/08/15 01:10:08;;;;;;;;;;;;;;;-145.06;100.00;60892.56;4730947;29;19920;-92
2023/08/15 01:12:52;;;;;;;;;;;;;;;-145.06;100.00;60892.56;4736739;29;20006;-92
2023/08/15 01:15:43;;;;;;;;;;;;;;;-145.06;100.00;60892.56;4729392;29;19916;-94
2023/08/15 01:18:34;;;;;;;;;;;;;;;-145.06;100.00;60892.56;4727522;29;19916;-93
2023/08/15 01:21:16;;;;;;;;;;;;;;;-145.06;100.00;60892.56;4723089;29;20373;-92
2023/08/15 01:24:11;;;;;;;;;;;;;;;-145.06;100.00;60892.56;4718205;29;19955;-94
2023/08/15 01:26:53;;;;;;;;;;;;;;;-145.06;100.00;60892.56;4718364;29;20003;-92
2023/08/15 01:29:35;;;;;;;;;;;;;;;-145.06;100.00;60892.56;4722967;29;19916;-93
2023/08/15 01:32:50;;;;;;;;;;;;;;;;;;;;;
2023/08/15 01:35:40;;;;;;;;;;;;;;;-145.06;100.00;60892.56;4710423;29;19916;-92
2023/08/15 01:38:32;;;;;;;;;;;;;;;23.62;100.00;60892.56;4705949;29;19959;-92
2023/08/15 01:41:20;;;;;;;;;;;;;;;23.57;100.00;60892.56;4686706;29;19920;-92
2023/08/15 01:44:03;;;;;;;;;;;;;;;23.53;100.00;60892.56;4709716;29;19924;-93
2023/08/15 01:46:46;;;;;;;;;;;;;;;23.50;100.00;60892.56;4700114;29;19920;-92
2023/08/15 01:49:28;;;;;;;;;;;;;;;23.47;100.00;60892.56;4699482;29;20374;-92
2023/08/15 01:52:12;;;;;;;;;;;;;;;23.44;100.00;60892.56;4724331;29;19920;-93
2023/08/15 01:54:54;;;;;;;;;;;;;;;23.42;100.00;60892.56;4728194;29;19916;-92
2023/08/15 01:57:39;;;;;;;;;;;;;;;23.39;100.00;60892.56;4725493;29;19919;-92
2023/08/15 02:00:30;;;;;;;;;;;;;;;23.38;100.00;60892.56;4704772;29;19916;-90
2023/08/15 02:03:11;;;;;;;;;;;;;;;-145.06;100.00;60892.56;4704418;29;19916;-93
2023/08/15 02:06:01;;;;;;;;;;;;;;;-145.06;100.00;60892.56;4703790;29;20002;-93
2023/08/15 02:08:43;;;;;;;;;;;;;;;-145.06;100.00;60892.56;4703609;29;19916;-92
2023/08/15 02:11:22;;;;;;;;;;;;;;;-145.06;100.00;60892.56;4716666;29;19920;-93
2023/08/15 02:14:15;;;;;;;;;;;;;;;-145.06;100.00;60892.56;4718167;29;20011;-92
2023/08/15 02:17:02;;;;;;;;;;;;;;;-145.06;100.00;60892.56;4716561;29;19915;-93
2023/08/15 02:19:41;;;;;;;;;;;;;;;-145.06;100.00;60892.56;4717123;29;19920;-92
2023/08/15 02:22:20;;;;;;;;;;;;;;;-145.06;100.00;60892.56;4716664;29;19920;-92
2023/08/15 02:24:59;;;;;;;;;;;;;;;-145.06;100.00;60892.56;4716524;29;19919;-92
2023/08/15 02:27:41;;;;;;;;;;;;;;;-145.06;100.00;60892.56;4717298;29;19920;-92
2023/08/15 02:30:22;;;;;;;;;;;;;;;-145.06;100.00;60892.56;4721230;29;19955;-92
2023/08/15 02:33:01;;;;;;;;;;;;;;;-145.06;100.00;60892.56;4703699;29;19916;-92
2023/08/15 02:35:41;;;;;;;;;;;;;;;-145.06;100.00;60892.56;4702470;29;20086;-92
2023/08/15 02:38:22;;;;;;;;;;;;;;;-145.06;100.00;60892.56;4706088;29;19916;-91
2023/08/15 02:41:02;;;;;;;;;;;;;;;23.26;100.00;60892.56;4721327;29;19959;-91
2023/08/15 02:43:41;;;;;;;;;;;;;;;23.26;100.00;60892.56;4702911;29;19916;-91
2023/08/15 02:46:20;;;;;;;;;;;;;;;23.25;100.00;60892.56;4697947;29;19951;-92
2023/08/15 02:49:02;;;;;;;;;;;;;;;23.24;100.00;60892.56;4706356;29;19916;-92
2023/08/15 02:51:41;;;;;;;;;;;;;;;23.24;100.00;60892.56;4713113;29;19916;-92
2023/08/15 02:54:20;;;;;;;;;;;;;;;23.24;100.00;60892.56;4719240;29;19915;-91
2023/08/15 02:57:01;;;;;;;;;;;;;;;23.22;100.00;60892.56;4697367;29;19984;-92
2023/08/15 03:00:28;;;;;;;;;;;;;;;23.21;100.00;60892.56;4714677;29;20418;-92
2023/08/15 03:03:34;;;;;;;;;;;;;;;23.22;100.00;60892.56;4717254;29;19951;-93
2023/08/15 03:06:50;;;;;;;;;;;;;;;;;;;;;
2023/08/15 03:10:01;;;;;;;;;;;;;;;;;;;;;
2023/08/15 03:20:12;;;;;;;;;;;;;;;-145.06;100.00;60892.56;4626627;29;19956;-95
2023/08/15 03:30:29;;;;;;;;;;;;;;;;;;;;;
2023/08/15 03:33:08;;;;;;;;;;;;;;;-145.06;100.00;60892.56;4645402;29;20251;-92
2023/08/15 03:49:59;;;;;;;;;;;;;;;;;;;;;
2023/08/15 04:39:35;;;;;;;;;;;;;;;-145.06;100.00;60892.56;4957397;23;19986;-92
2023/08/15 04:52:04;;;;;;;;;;;;;;;-145.06;100.00;60892.56;4702429;29;19920;-92
2023/08/15 05:59:24;;;;;;;;;;;;;;;;;;;;;
2023/08/15 06:05:44;;;;;;;;;;;;;;;-145.06;100.00;60892.56;4729611;29;19919;-93
2023/08/15 06:12:43;;;;;;;;;;;;;;;-145.06;100.00;60892.56;4731639;29;20002;-93
2023/08/15 06:15:21;;;;;;;;;;;;;;;-145.06;100.00;60892.56;4751881;29;19915;-91
2023/08/15 06:18:00;;;;;;;;;;;;;;;-145.06;100.00;60892.56;4736111;29;20369;-92
2023/08/15 06:20:40;;;;;;;;;;;;;;;-145.06;100.00;60892.56;4751328;29;19915;-91
2023/08/15 06:23:19;;;;;;;;;;;;;;;-145.06;100.00;60892.56;4755336;29;19915;-92
2023/08/15 06:26:00;;;;;;;;;;;;;;;-145.06;100.00;60892.56;4753197;29;19915;-92
2023/08/15 06:28:39;;;;;;;;;;;;;;;-145.06;100.00;60892.56;4736945;29;19919;-92
2023/08/15 06:31:21;;;;;;;;;;;;;;;-145.06;100.00;60892.56;4736936;29;20366;-92
2023/08/15 06:34:01;;;;;;;;;;;;;;;-145.06;100.00;60892.56;4741780;29;20177;-90
2023/08/15 06:36:39;;;;;;;;;;;;;;;-145.06;100.00;60892.56;4736669;29;19919;-92
2023/08/15 06:39:18;;;;;;;;;;;;;;;-145.06;100.00;60892.56;4736789;29;19915;-91
2023/08/15 06:41:57;;;;;;;;;;;;;;;-145.06;100.00;60892.56;4730256;29;20001;-91
2023/08/15 06:44:36;;;;;;;;;;;;;;;-145.06;100.00;60892.56;4737090;29;19919;-90
2023/08/15 06:47:15;;;;;;;;;;;;;;;-145.06;100.00;60892.56;4736656;29;20405;-91
2023/08/15 06:49:54;;;;;;;;;;;;;;;-145.06;100.00;60892.56;4729537;29;19915;-92
2023/08/15 06:52:33;;;;;;;;;;;;;;;-145.06;100.00;60892.56;4736470;29;19998;-91
2023/08/15 06:55:12;;;;;;;;;;;;;;;-145.06;100.00;60892.56;4735935;29;19915;-92
2023/08/15 06:57:51;;;;;;;;;;;;;;;-145.06;100.00;60892.56;4736412;29;20369;-91
2023/08/15 07:00:30;;;;;;;;;;;;;;;-145.06;100.00;60892.56;4738902;29;19915;-91
2023/08/15 07:03:09;;;;;;;;;;;;;;;-145.06;100.00;60892.56;4731451;29;19916;-91
2023/08/15 07:05:49;;;;;;;;;;;;;;;-145.06;100.00;60892.56;4717440;29;19919;-91
2023/08/15 07:08:28;;;;;;;;;;;;;;;-145.06;100.00;60892.56;4750654;29;19959;-91
2023/08/15 07:11:07;;;;;;;;;;;;;;;-145.06;100.00;60892.56;4735724;29;19941;-90
2023/08/15 07:13:46;;;;;;;;;;;;;;;-145.06;100.00;60892.56;4720648;29;19923;-91
2023/08/15 07:16:25;;;;;;;;;;;;;;;-145.06;100.00;60892.56;4725893;29;19971;-91
2023/08/15 07:19:04;;;;;;;;;;;;;;;-145.06;100.00;60892.56;4760252;29;19915;-90
2023/08/15 07:21:44;;;;;;;;;;;;;;;-145.06;100.00;60892.56;4735360;29;19915;-91
2023/08/15 07:24:23;;;;;;;;;;;;;;;-145.06;100.00;60892.56;4735482;29;19915;-91
2023/08/15 07:27:02;;;;;;;;;;;;;;;-145.06;100.00;60892.56;4735278;29;19958;-91
2023/08/15 07:29:41;;;;;;;;;;;;;;;-145.06;100.00;60892.56;4733736;29;19915;-92
2023/08/15 07:32:20;;;;;;;;;;;;;;;-145.06;100.00;60892.56;4727674;29;19915;-91
2023/08/15 07:35:01;;;;;;;;;;;;;;;-145.06;100.00;60892.56;4735329;29;20353;-89
2023/08/15 07:37:41;;;;;;;;;;;;;;;-145.06;100.00;60892.56;4741241;29;19915;-91
2023/08/15 07:40:21;;;;;;;;;;;;;;;-145.06;100.00;60892.56;4735196;29;19916;-90
2023/08/15 07:43:00;;;;;;;;;;;;;;;-145.06;100.00;60892.56;4734668;29;19915;-90
2023/08/15 07:45:39;;;;;;;;;;;;;;;-145.06;100.00;60892.56;4734454;29;20313;-90
2023/08/15 07:48:18;;;;;;;;;;;;;;;-145.06;100.00;60892.56;4735008;29;19919;-90
2023/08/15 07:50:57;;;;;;;;;;;;;;;-145.06;100.00;60892.56;4734844;29;19962;-92
2023/08/15 07:53:36;;;;;;;;;;;;;;;-145.06;100.00;60892.56;4734961;29;19915;-90
2023/08/15 07:56:15;;;;;;;;;;;;;;;-145.06;100.00;60892.56;4734282;29;19915;-91
2023/08/15 07:58:54;;;;;;;;;;;;;;;-145.06;100.00;60892.56;4734314;29;20305;-91
2023/08/15 08:01:33;;;;;;;;;;;;;;;-145.06;100.00;60892.56;4734251;29;19915;-89
2023/08/15 08:04:12;;;;;;;;;;;;;;;-145.06;100.00;60892.56;4734311;29;19915;-91
2023/08/15 08:06:51;;;;;;;;;;;;;;;-145.06;100.00;60892.56;4754535;29;19982;-92
2023/08/15 08:09:30;;;;;;;;;;;;;;;-145.06;100.00;60892.56;4738079;29;19919;-90
2023/08/15 08:12:09;;;;;;;;;;;;;;;-145.06;100.00;60892.56;4734472;29;19911;-90
2023/08/15 08:14:48;;;;;;;;;;;;;;;-145.06;100.00;60892.56;4733934;29;19919;-93
2023/08/15 08:17:27;;;;;;;;;;;;;;;-145.06;100.00;60892.56;4734049;29;19915;-90
2023/08/15 08:20:11;;;;;;;;;;;;;;;-145.06;100.00;60892.56;4751241;29;19926;-91
2023/08/15 08:22:50;;;;;;;;;;;;;;;-145.06;100.00;60892.56;4752516;29;19915;-91
2023/08/15 08:25:29;;;;;;;;;;;;;;;-145.06;100.00;60892.56;4744402;29;19915;-91
2023/08/15 08:28:07;;;;;;;;;;;;;;;-145.06;100.00;60892.56;4733964;29;19919;-91
2023/08/15 08:30:47;;;;;;;;;;;;;;;-145.06;100.00;60892.56;4733677;29;19923;-90
2023/08/15 08:33:27;;;;;;;;;;;;;;;-145.06;100.00;60892.56;4733915;29;20005;-91
2023/08/15 08:36:07;;;;;;;;;;;;;;;-145.06;100.00;60892.56;4733360;29;19927;-89
2023/08/15 08:38:46;;;;;;;;;;;;;;;-145.06;100.00;60892.56;4731928;29;19919;-90
2023/08/15 08:41:25;;;;;;;;;;;;;;;-145.06;100.00;60892.56;4734082;29;19916;-91
2023/08/15 08:44:04;;;;;;;;;;;;;;;-145.06;100.00;60892.56;4733760;29;20361;-90
2023/08/15 08:46:43;;;;;;;;;;;;;;;-145.06;100.00;60892.56;4742306;29;20009;-89
2023/08/15 08:49:23;;;;;;;;;;;;;;;-145.06;100.00;60892.56;4737693;29;19915;-90
2023/08/15 08:52:03;;;;;;;;;;;;;;;-145.06;100.00;60892.56;4733460;29;19919;-91
2023/08/15 08:54:42;;;;;;;;;;;;;;;-145.06;100.00;60892.56;4733441;29;20254;-91
2023/08/15 08:57:21;;;;;;;;;;;;;;;-145.06;100.00;60892.56;4733278;29;19998;-90
2023/08/15 09:00:00;;;;;;;;;;;;;;;-145.06;100.00;60892.56;4733815;29;19962;-91
2023/08/15 09:02:39;;;;;;;;;;;;;;;-145.06;100.00;60892.56;4733857;29;19915;-90
2023/08/15 09:05:19;;;;;;;;;;;;;;;-145.06;100.00;60892.56;4733410;29;19922;-91
2023/08/15 09:07:58;;;;;;;;;;;;;;;-145.06;100.00;60892.56;4727100;29;19920;-91
2023/08/15 09:10:37;;;;;;;;;;;;;;;-145.06;100.00;60892.56;4714717;29;19916;-90
2023/08/15 09:13:21;;;;;;;;;;;;;;;-145.06;100.00;60892.56;4721980;29;20266;-90
2023/08/15 09:16:03;;;;;;;;;;;;;;;-145.06;100.00;60892.56;4733852;29;20266;-91
2023/08/15 09:18:42;;;;;;;;;;;;;;;-145.06;100.00;60892.56;4737101;29;19918;-91
2023/08/15 09:21:23;;;;;;;;;;;;;;;-145.06;100.00;60892.56;4737054;29;20006;-91
2023/08/15 09:24:03;;;;;;;;;;;;;;;-145.06;100.00;60892.56;4736596;29;20471;-91
2023/08/15 09:26:42;;;;;;;;;;;;;;;-145.06;100.00;60892.56;4737044;29;19919;-92
2023/08/15 09:29:21;;;;;;;;;;;;;;;-145.06;100.00;60892.56;4738157;29;19915;-91
2023/08/15 09:32:00;;;;;;;;;;;;;;;-145.06;100.00;60892.56;4731246;29;19915;-90
2023/08/15 09:34:39;;;;;;;;;;;;;;;-145.06;100.00;60892.56;4728481;29;19915;-92
2023/08/15 09:37:20;;;;;;;;;;;;;;;-145.06;100.00;60892.56;4740624;29;19914;-91
2023/08/15 09:40:00;;;;;;;;;;;;;;;-145.06;100.00;60892.56;4755182;29;19915;-91
2023/08/15 09:42:40;;;;;;;;;;;;;;;-145.06;100.00;60892.56;4743423;29;20010;-90
2023/08/15 09:45:19;;;;;;;;;;;;;;;-145.06;100.00;60892.56;4735892;29;20014;-92
2023/08/15 09:47:58;;;;;;;;;;;;;;;-145.06;100.00;60892.56;4736801;29;19919;-91
2023/08/15 09:50:37;;;;;;;;;;;;;;;-145.06;100.00;60892.56;4736898;29;19919;-91
2023/08/15 09:53:17;;;;;;;;;;;;;;;-145.06;100.00;60892.56;4737218;29;19923;-91
2023/08/15 09:55:55;;;;;;;;;;;;;;;-145.06;100.00;60892.56;4736966;29;19998;-91
2023/08/15 09:58:35;;;;;;;;;;;;;;;-145.06;100.00;60892.56;4736788;29;19919;-90
2023/08/15 10:01:15;;;;;;;;;;;;;;;-145.06;100.00;60892.56;4734908;29;19915;-90
2023/08/15 10:03:56;;;;;;;;;;;;;;;-145.06;100.00;60892.56;4718807;29;19915;-92
2023/08/15 10:06:35;;;;;;;;;;;;;;;-145.06;100.00;60892.56;4718483;29;19955;-91
2023/08/15 10:09:15;;;;;;;;;;;;;;;-145.06;100.00;60892.56;4739077;29;19915;-93
2023/08/15 10:11:55;;;;;;;;;;;;;;;-145.06;100.00;60892.56;4754964;29;20392;-91
2023/08/15 10:14:33;;;;;;;;;;;;;;;-145.06;100.00;60892.56;4755805;29;19915;-91
2023/08/15 10:17:12;;;;;;;;;;;;;;;-145.06;100.00;60892.56;4775536;29;19915;-92
2023/08/15 10:19:51;;;;;;;;;;;;;;;-145.06;100.00;60892.56;4740501;29;20013;-91
2023/08/15 10:22:30;;;;;;;;;;;;;;;-145.06;100.00;60892.56;4737095;29;20006;-91
2023/08/15 10:25:28;;;;;;;;;;;;;;;-145.06;100.00;60892.56;4745840;29;19915;-91
2023/08/15 10:28:08;;;;;;;;;;;;;;;-145.06;100.00;60892.56;4754564;29;19923;-92
2023/08/15 10:30:48;;;;;;;;;;;;;;;-145.06;100.00;60892.56;4755470;29;19918;-92
2023/08/15 10:33:31;;;;;;;;;;;;;;;-145.06;100.00;60892.56;4754852;29;20348;-91
2023/08/15 10:36:10;;;;;;;;;;;;;;;-145.06;100.00;60892.56;4754978;29;19915;-91
2023/08/15 10:38:52;;;;;;;;;;;;;;;-145.06;100.00;60892.56;4754965;29;19919;-90
2023/08/15 10:41:32;;;;;;;;;;;;;;;-145.06;100.00;60892.56;4754554;29;19914;-92
2023/08/15 10:44:11;;;;;;;;;;;;;;;-145.06;100.00;60892.56;4754049;29;19915;-92
2023/08/15 10:46:50;;;;;;;;;;;;;;;-145.06;100.00;60892.56;4737350;29;20377;-92
2023/08/15 10:49:29;;;;;;;;;;;;;;;-145.06;100.00;60892.56;4736581;29;19919;-92
2023/08/15 10:52:08;;;;;;;;;;;;;;;-145.06;100.00;60892.56;4736390;29;19915;-91
2023/08/15 10:54:46;;;;;;;;;;;;;;;-145.06;100.00;60892.56;4754362;29;19919;-91
2023/08/15 10:57:26;;;;;;;;;;;;;;;-145.06;100.00;60892.56;4718293;29;19915;-91
2023/08/15 11:00:05;;;;;;;;;;;;;;;-145.06;100.00;60892.56;4717838;29;19919;-92
2023/08/15 11:02:44;;;;;;;;;;;;;;;-145.06;100.00;60892.56;4718091;29;19983;-92
2023/08/15 11:05:23;;;;;;;;;;;;;;;-145.06;100.00;60892.56;4717973;29;19916;-92
2023/08/15 11:08:10;;;;;;;;;;;;;;;-145.06;100.00;60892.56;4718358;29;19956;-92
2023/08/15 11:10:49;;;;;;;;;;;;;;;-145.06;100.00;60892.56;4718219;29;19923;-93
2023/08/15 11:13:28;;;;;;;;;;;;;;;-145.06;100.00;60892.56;4717860;29;19915;-93
2023/08/15 11:16:07;;;;;;;;;;;;;;;-145.06;100.00;60892.56;4717380;29;20373;-91
2023/08/15 11:18:47;;;;;;;;;;;;;;;-145.06;100.00;60892.56;4717616;29;20373;-92
2023/08/15 11:21:29;;;;;;;;;;;;;;;-145.06;100.00;60892.56;4716997;29;19919;-92
2023/08/15 11:24:09;;;;;;;;;;;;;;;-145.06;100.00;60892.56;4717622;29;20361;-92
2023/08/15 11:26:48;;;;;;;;;;;;;;;-145.06;100.00;60892.56;4739733;29;19919;-92
2023/08/15 11:29:27;;;;;;;;;;;;;;;-145.06;100.00;60892.56;4735621;29;19915;-93
2023/08/15 11:32:08;;;;;;;;;;;;;;;-145.06;100.00;60892.56;4729686;29;20392;-93
2023/08/15 11:34:47;;;;;;;;;;;;;;;-145.06;100.00;60892.56;4734939;29;19915;-92
2023/08/15 11:37:26;;;;;;;;;;;;;;;-145.06;100.00;60892.56;4735693;29;19919;-91
2023/08/15 11:40:05;;;;;;;;;;;;;;;-145.06;100.00;60892.56;4736976;29;19915;-92
2023/08/15 11:42:45;;;;;;;;;;;;;;;-145.06;100.00;60892.56;4755895;29;20373;-92
2023/08/15 11:45:24;;;;;;;;;;;;;;;-145.06;100.00;60892.56;4735123;29;19915;-91
2023/08/15 11:48:03;;;;;;;;;;;;;;;-145.06;100.00;60892.56;4735803;29;19920;-92
2023/08/15 11:50:43;;;;;;;;;;;;;;;-145.06;100.00;60892.56;4735060;29;19915;-92
2023/08/15 11:53:22;;;;;;;;;;;;;;;-145.06;100.00;60892.56;4735187;29;19963;-92
2023/08/15 11:56:04;;;;;;;;;;;;;;;-145.06;100.00;60892.56;4734768;29;19915;-93
2023/08/15 11:59:15;;;;;;;;;;;;;;;-145.06;100.00;60892.56;4735667;29;20377;-92
2023/08/15 12:01:59;;;;;;;;;;;;;;;-145.06;100.00;60892.56;4728039;29;20286;-92
2023/08/15 12:04:38;;;;;;;;;;;;;;;25.66;100.00;60892.56;4731981;29;19923;-92
2023/08/15 12:10:25;;;;;;;;;;;;;;;25.68;100.00;60892.56;4745833;29;19915;-93
2023/08/15 12:13:04;;;;;;;;;;;;;;;25.70;100.00;60892.56;4718873;29;19915;-92
2023/08/15 12:15:43;;;;;;;;;;;;;;;25.72;100.00;60892.56;4753137;29;19970;-93
2023/08/15 12:18:22;;;;;;;;;;;;;;;25.74;100.00;60892.56;4753652;29;19957;-92
2023/08/15 12:21:04;;;;;;;;;;;;;;;25.75;100.00;60892.56;4736779;29;19958;-93
2023/08/15 12:24:04;;;;;;;;;;;;;;;;;;;;;
2023/08/15 12:33:41;;;;;;;;;;;;;;;25.82;100.00;60892.56;4725376;29;19916;-92
2023/08/15 12:36:20;;;;;;;;;;;;;;;25.84;100.00;60892.56;4715752;29;20006;-93
2023/08/15 12:38:59;;;;;;;;;;;;;;;25.84;100.00;87440.63;4730254;29;19915;-93
2023/08/15 12:41:41;;;;;;;;;;;;;;;25.87;100.00;104794.97;4749384;29;20281;-92
2023/08/15 12:44:20;;;;;;;;;;;;;;;25.89;100.00;87440.63;4735536;29;19919;-92
2023/08/15 12:46:59;;;;;;;;;;;;;;;25.91;100.00;84510.56;4755503;29;19919;-92
2023/08/15 12:49:40;;;;;;;;;;;;;;;25.93;100.00;60892.56;4734643;29;19926;-93
2023/08/15 12:52:19;;;;;;;;;;;;;;;25.92;100.00;60892.56;4736548;29;19915;-93
2023/08/15 12:55:11;;;;;;;;;;;;;;;25.93;100.00;60892.56;4726927;29;19916;-92
2023/08/15 12:57:53;;;;;;;;;;;;;;;-145.06;100.00;60892.56;4720722;29;19919;-93
2023/08/15 13:00:34;;;;;;;;;;;;;;;-145.06;100.00;60892.56;4720336;29;19915;-93
2023/08/15 13:03:16;;;;;;;;;;;;;;;-145.06;100.00;60892.56;4720202;29;19919;-93
2023/08/15 13:05:55;;;;;;;;;;;;;;;-145.06;100.00;60892.56;4719848;29;19915;-93
2023/08/15 13:08:44;;;;;;;;;;;;;;;26.03;100.00;84510.56;4720419;29;19919;-93
2023/08/15 13:11:23;;;;;;;;;;;;;;;26.01;100.00;60892.56;4720109;29;19915;-92
2023/08/15 13:14:05;;;;;;;;;;;;;;;26.01;100.00;60892.56;4720578;29;19915;-93
2023/08/15 13:16:47;;;;;;;;;;;;;;;26.01;100.00;60892.56;4719651;29;19915;-92
2023/08/15 13:19:28;;;;;;;;;;;;;;;26.01;100.00;60892.56;4720303;29;19955;-92
2023/08/15 13:22:07;;;;;;;;;;;;;;;26.01;100.00;60892.56;4720514;29;20254;-93
2023/08/15 13:24:46;;;;;;;;;;;;;;;26.04;100.00;60892.56;4719268;29;19919;-92
2023/08/15 13:27:28;;;;;;;;;;;;;;;26.07;100.00;60892.56;4719695;29;19919;-93
2023/08/15 13:30:07;;;;;;;;;;;;;;;26.09;100.00;60892.56;4719884;29;19916;-92
2023/08/15 13:33:09;;;;;;;;;;;;;;;;;;;;;
2023/08/15 13:53:36;;;;;;;;;;;;;;;-145.06;100.00;60892.56;4893771;23;20046;-92
2023/08/15 13:56:15;;;;;;;;;;;;;;;-145.06;100.00;60892.56;4743976;29;19993;-90
2023/08/15 13:58:54;;;;;;;;;;;;;;;-145.06;100.00;60892.56;4747859;29;20376;-93
2023/08/15 14:01:34;;;;;;;;;;;;;;;-145.06;100.00;60892.56;4751224;29;19915;-92
2023/08/15 14:04:13;;;;;;;;;;;;;;;-145.06;100.00;60892.56;4756091;29;19919;-93
2023/08/15 14:06:55;;;;;;;;;;;;;;;-145.06;100.00;60892.56;4737251;29;19919;-92
2023/08/15 14:09:34;;;;;;;;;;;;;;;-145.06;100.00;60892.56;4755604;29;19915;-94
2023/08/15 14:12:18;;;;;;;;;;;;;;;-145.06;100.00;60892.56;4756737;29;19915;-94
2023/08/15 14:14:57;;;;;;;;;;;;;;;-145.06;100.00;60892.56;4738302;29;19919;-93
2023/08/15 14:17:36;;;;;;;;;;;;;;;-145.06;100.00;60892.56;4748425;29;19982;-92
2023/08/15 14:20:15;;;;;;;;;;;;;;;-145.06;100.00;60892.56;4735594;29;20265;-91
2023/08/15 14:22:54;;;;;;;;;;;;;;;-145.06;100.00;60892.56;4729987;29;19919;-94
2023/08/15 14:25:33;;;;;;;;;;;;;;;-145.06;100.00;60892.56;4737550;29;19943;-93
2023/08/15 14:28:12;;;;;;;;;;;;;;;-145.06;100.00;60892.56;4754636;29;20357;-93
2023/08/15 14:30:51;;;;;;;;;;;;;;;-145.06;100.00;60892.56;4735339;29;19919;-92
2023/08/15 14:33:30;;;;;;;;;;;;;;;-145.06;100.00;60892.56;4736277;29;19919;-91
2023/08/15 14:36:12;;;;;;;;;;;;;;;-145.06;100.00;60892.56;4737428;29;19915;-94
2023/08/15 14:38:51;;;;;;;;;;;;;;;-145.06;100.00;60892.56;4735310;29;19920;-92
2023/08/15 14:41:33;;;;;;;;;;;;;;;-145.06;100.00;60892.56;4727413;29;19919;-92
2023/08/15 14:44:11;;;;;;;;;;;;;;;-145.06;100.00;60892.56;4745542;29;19934;-91
2023/08/15 14:46:50;;;;;;;;;;;;;;;-145.06;100.00;60892.56;4729345;29;20351;-92
2023/08/15 14:49:30;;;;;;;;;;;;;;;-145.06;100.00;60892.56;4754124;29;19919;-91
2023/08/15 14:52:09;;;;;;;;;;;;;;;-145.06;100.00;60892.56;4725282;29;19920;-92
2023/08/15 14:54:48;;;;;;;;;;;;;;;-145.06;100.00;60892.56;4719012;29;19915;-92
2023/08/15 14:57:27;;;;;;;;;;;;;;;-145.06;100.00;60892.56;4733748;29;19915;-92
2023/08/15 15:00:07;;;;;;;;;;;;;;;-145.06;100.00;60892.56;4736834;29;20363;-94
2023/08/15 15:02:46;;;;;;;;;;;;;;;-145.06;100.00;60892.56;4735145;29;19915;-93
2023/08/15 15:05:25;;;;;;;;;;;;;;;-145.06;100.00;60892.56;4735378;29;19923;-93
2023/08/15 15:08:04;;;;;;;;;;;;;;;-145.06;100.00;60892.56;4735212;29;19915;-93
2023/08/15 15:10:43;;;;;;;;;;;;;;;-145.06;100.00;60892.56;4752479;29;20266;-92
2023/08/15 15:13:22;;;;;;;;;;;;;;;-145.06;100.00;60892.56;4738885;29;19915;-90
2023/08/15 15:16:01;;;;;;;;;;;;;;;-145.06;100.00;60892.56;4727325;29;20250;-91
2023/08/15 15:18:43;;;;;;;;;;;;;;;-145.06;100.00;60892.56;4738086;29;19919;-91
2023/08/15 15:21:22;;;;;;;;;;;;;;;-145.06;100.00;60892.56;4717541;29;19915;-91
2023/08/15 15:24:01;;;;;;;;;;;;;;;-145.06;100.00;60892.56;4734946;29;19915;-92
2023/08/15 15:26:40;;;;;;;;;;;;;;;-145.06;100.00;60892.56;4735680;29;19950;-91
2023/08/15 15:29:19;;;;;;;;;;;;;;;-145.06;100.00;60892.56;4740976;29;19919;-92
2023/08/15 15:31:58;;;;;;;;;;;;;;;-145.06;100.00;60892.56;4735763;29;19915;-91
2023/08/15 15:34:37;;;;;;;;;;;;;;;-145.06;100.00;60892.56;4752883;29;20009;-91
2023/08/15 15:37:16;;;;;;;;;;;;;;;-145.06;100.00;60892.56;4751641;29;19915;-93
2023/08/15 15:39:55;;;;;;;;;;;;;;;-145.06;100.00;60892.56;4737305;29;19919;-91
2023/08/15 15:42:34;;;;;;;;;;;;;;;-145.06;100.00;60892.56;4734828;29;19915;-94
2023/08/15 15:45:13;;;;;;;;;;;;;;;-145.06;100.00;60892.56;4734692;29;19919;-91
2023/08/15 15:47:52;;;;;;;;;;;;;;;-145.06;100.00;60892.56;4734624;29;19915;-91
2023/08/15 15:50:34;;;;;;;;;;;;;;;-145.06;100.00;60892.56;4734156;29;20349;-91
2023/08/15 15:53:13;;;;;;;;;;;;;;;-145.06;100.00;60892.56;4736408;29;19920;-91
2023/08/15 15:55:52;;;;;;;;;;;;;;;-145.06;100.00;60892.56;4717401;29;19916;-92
2023/08/15 15:58:31;;;;;;;;;;;;;;;-145.06;100.00;60892.56;4730504;29;19915;-93
2023/08/15 16:01:11;;;;;;;;;;;;;;;-145.06;100.00;60892.56;4735628;29;19915;-92
2023/08/15 16:03:52;;;;;;;;;;;;;;;-145.06;100.00;60892.56;4754188;29;19914;-92
2023/08/15 16:06:34;;;;;;;;;;;;;;;-145.06;100.00;60892.56;4752985;29;19923;-92
2023/08/15 16:09:13;;;;;;;;;;;;;;;-145.06;100.00;60892.56;4731697;29;19915;-93
2023/08/15 16:11:52;;;;;;;;;;;;;;;-145.06;100.00;60892.56;4725664;29;19919;-93
2023/08/15 16:17:52;;;;;;;;;;;;;;;-145.06;100.00;60892.56;4746406;29;19982;-93
2023/08/15 16:20:34;;;;;;;;;;;;;;;-145.06;100.00;60892.56;4754156;29;19914;-92
2023/08/15 16:23:14;;;;;;;;;;;;;;;-145.06;100.00;60892.56;4741214;29;19919;-92
2023/08/15 16:25:53;;;;;;;;;;;;;;;-145.06;100.00;60892.56;4753253;29;20014;-91
2023/08/15 16:28:32;;;;;;;;;;;;;;;-145.06;100.00;60892.56;4717813;29;19915;-92
2023/08/15 16:31:13;;;;;;;;;;;;;;;-145.06;100.00;60892.56;4726437;29;19927;-93
2023/08/15 16:33:53;;;;;;;;;;;;;;;-145.06;100.00;60892.56;4717217;29;19915;-93
2023/08/15 16:36:43;;;;;;;;;;;;;;;-145.06;100.00;60892.56;4718360;29;19916;-94
2023/08/15 16:39:26;;;;;;;;;;;;;;;-145.06;100.00;60892.56;4732158;29;19915;-94
2023/08/15 16:42:05;;;;;;;;;;;;;;;-145.06;100.00;60892.56;4734907;29;19919;-93
2023/08/15 16:44:44;;;;;;;;;;;;;;;-145.06;100.00;60892.56;4755739;29;19938;-93
2023/08/15 16:47:23;;;;;;;;;;;;;;;-145.06;100.00;60892.56;4750200;29;19915;-91
2023/08/15 16:50:02;;;;;;;;;;;;;;;-145.06;100.00;60892.56;4739009;29;19997;-92
2023/08/15 16:52:41;;;;;;;;;;;;;;;-145.06;100.00;60892.56;4729023;29;19919;-93